Le Roy, West Virginia
Current Conditions -  °F | °C
As of 5:15 PM on Thursday 23 Oct 2014 (Local Time) from K3I2 Reporting Station
Scattered Clouds Scattered Clouds  
Wind Chill: 63°   Ceiling: Unl
Heat Index: 63°   Visibility: 10mi
Dew Point: 43°   Wind: 3mph
Humidity: 48%   Direction: 280°W
Pressure: 30.12"   Gusts: NA
Location:  38.92°N, 81.55°W
Report Text: K3I2 232115Z AUTO 28003KT 10SM SCT043 17/06 A3012 RMK AO2
Loading
Personal Weather Stations






























Interactive Weather Map
Tropical Storm Tracking
New forecast layout! Learn more

10-Day Weather Forecast

Advertisements
Track Severe Weather on mobile